Time;durP1;ratioP1;P1;durP2;ratioP2;P2;SDS_P1;SDS_P2;PMS_P1;PMS_P2;Temp;Humidity;BMP_temperature;BMP_pressure;BME280_temperature;BME280_humidity;BME280_pressure;Samples;Min_cycle;Max_cycle;Signal;HPM_P1;HPM_P2
2021/01/12 00:02:02;;;;;;;23.50;17.17;;;-1.40;92.60;;;;;;5080882;28;20266;-72
2021/01/12 00:04:27;;;;;;;24.80;17.10;;;-1.40;92.40;;;;;;5095423;28;20213;-72
2021/01/12 00:06:53;;;;;;;23.03;16.17;;;-1.40;92.40;;;;;;5091504;28;20589;-72
2021/01/12 00:09:19;;;;;;;18.80;14.83;;;-1.30;92.50;;;;;;5082311;28;20203;-71
2021/01/12 00:11:44;;;;;;;22.00;16.10;;;-1.30;92.50;;;;;;5102104;28;20182;-72
2021/01/12 00:14:30;;;;;;;21.57;15.93;;;-1.30;92.60;;;;;;5095509;28;20213;-72
2021/01/12 00:16:55;;;;;;;23.50;15.80;;;-1.20;92.50;;;;;;5098616;28;20223;-74
2021/01/12 00:19:21;;;;;;;21.73;14.63;;;-1.20;92.60;;;;;;5089085;28;20694;-72
2021/01/12 00:21:47;;;;;;;21.70;15.30;;;-1.20;92.50;;;;;;5085583;28;20204;-71
2021/01/12 00:24:12;;;;;;;20.57;14.63;;;-1.20;92.40;;;;;;5107291;28;20187;-72
2021/01/12 00:26:38;;;;;;;20.30;13.93;;;-1.10;92.40;;;;;;5090014;28;20298;-71
2021/01/12 00:29:03;;;;;;;18.67;13.80;;;-1.10;92.40;;;;;;5074846;28;20195;-71
2021/01/12 00:31:29;;;;;;;20.43;14.90;;;-1.10;92.40;;;;;;5077962;28;20192;-72
2021/01/12 00:33:55;;;;;;;19.50;13.60;;;-1.00;92.60;;;;;;5087576;28;20204;-72
2021/01/12 00:36:20;;;;;;;22.23;15.53;;;-1.00;92.40;;;;;;5102183;28;20262;-72
2021/01/12 00:38:46;;;;;;;21.20;14.27;;;-1.10;92.70;;;;;;5079802;28;20554;-72
2021/01/12 00:41:11;;;;;;;22.10;15.20;;;-1.00;92.80;;;;;;5078636;28;20181;-73
2021/01/12 00:43:37;;;;;;;19.17;14.03;;;-1.00;93.00;;;;;;5082948;28;20187;-71
2021/01/12 00:46:07;;;;;;;21.30;14.10;;;-1.00;93.00;;;;;;5085033;28;20214;-74
2021/01/12 00:48:33;;;;;;;22.17;15.00;;;-1.10;92.80;;;;;;5077809;28;20188;-73
2021/01/12 00:50:58;;;;;;;17.17;12.67;;;-1.10;92.90;;;;;;5076472;28;20201;-70
2021/01/12 00:53:24;;;;;;;19.47;14.57;;;-1.10;92.50;;;;;;5073621;28;20208;-72
2021/01/12 00:55:50;;;;;;;16.73;10.73;;;-1.10;92.50;;;;;;5075388;28;20207;-72
2021/01/12 00:58:15;;;;;;;21.40;14.20;;;-1.00;92.50;;;;;;5073473;28;20188;-72
2021/01/12 01:00:41;;;;;;;16.77;12.37;;;-1.00;92.50;;;;;;5084307;28;20180;-73
2021/01/12 01:03:06;;;;;;;18.23;13.83;;;-1.10;92.80;;;;;;5077316;28;20214;-73
2021/01/12 01:05:32;;;;;;;18.63;12.60;;;-1.10;92.80;;;;;;5080160;28;20198;-71
2021/01/12 01:07:58;;;;;;;18.33;12.40;;;-1.10;92.70;;;;;;5072224;28;20174;-72
2021/01/12 01:10:23;;;;;;;21.90;13.47;;;-1.10;92.80;;;;;;5084563;28;20182;-72
2021/01/12 01:12:49;;;;;;;18.13;13.40;;;-1.10;92.70;;;;;;5076089;28;20602;-72
2021/01/12 01:15:15;;;;;;;18.20;13.50;;;-1.00;92.80;;;;;;5079429;28;20198;-71
2021/01/12 01:17:41;;;;;;;17.43;12.67;;;-1.00;92.80;;;;;;5074267;28;20236;-71
2021/01/12 01:20:07;;;;;;;17.70;13.63;;;-1.00;92.80;;;;;;5079711;28;20728;-72
2021/01/12 01:22:32;;;;;;;17.90;13.17;;;-1.00;93.00;;;;;;5079564;28;20179;-71
2021/01/12 01:24:58;;;;;;;16.90;12.60;;;-0.90;93.00;;;;;;5085458;28;20686;-72
2021/01/12 01:27:24;;;;;;;18.80;12.30;;;-0.90;92.80;;;;;;5083145;28;20205;-72
2021/01/12 01:29:49;;;;;;;16.67;12.07;;;-0.80;92.70;;;;;;5076601;28;20201;-72
2021/01/12 01:32:15;;;;;;;17.40;12.13;;;-0.70;92.60;;;;;;5075339;28;20546;-72
2021/01/12 01:34:40;;;;;;;18.97;13.23;;;-0.70;92.50;;;;;;5077252;28;20185;-72
2021/01/12 01:37:07;;;;;;;15.77;10.40;;;-0.70;92.80;;;;;;5084535;28;20205;-73
2021/01/12 01:39:32;;;;;;;15.23;11.23;;;-0.60;92.80;;;;;;5070975;28;20186;-72
2021/01/12 01:42:02;;;;;;;16.20;12.10;;;-0.50;92.80;;;;;;5083329;28;20184;-72
2021/01/12 01:44:28;;;;;;;16.27;11.70;;;-0.50;93.00;;;;;;5073150;28;20268;-72
2021/01/12 01:46:55;;;;;;;15.13;10.47;;;-0.50;93.20;;;;;;5076251;28;20200;-71
2021/01/12 01:49:21;;;;;;;16.33;11.87;;;-0.50;93.20;;;;;;5071520;28;20267;-72
2021/01/12 01:51:47;;;;;;;15.03;10.93;;;-0.50;93.20;;;;;;5073388;28;20283;-72
2021/01/12 01:54:13;;;;;;;16.93;11.70;;;-0.50;93.30;;;;;;5080218;28;20208;-73
2021/01/12 01:56:39;;;;;;;14.70;11.07;;;-0.50;93.00;;;;;;5078291;28;20203;-72
2021/01/12 01:59:04;;;;;;;14.43;11.40;;;-0.50;93.00;;;;;;5072904;28;20179;-72
2021/01/12 02:01:30;;;;;;;16.73;10.87;;;-0.50;93.30;;;;;;5073145;28;20187;-73
2021/01/12 02:04:21;;;;;;;15.40;11.43;;;-0.50;93.20;;;;;;5076269;28;20179;-72
2021/01/12 02:06:48;;;;;;;15.20;11.17;;;-0.60;93.40;;;;;;5085271;28;20272;-71
2021/01/12 02:09:38;;;;;;;15.27;11.47;;;-0.50;93.30;;;;;;5082997;28;20973;-71
2021/01/12 02:12:13;;;;;;;13.57;10.10;;;-0.50;93.40;;;;;;5080705;28;20184;-73
2021/01/12 02:14:39;;;;;;;12.73;9.43;;;-0.40;93.20;;;;;;5082071;28;20783;-73
2021/01/12 02:17:06;;;;;;;14.27;9.87;;;-0.40;93.50;;;;;;5086741;28;20201;-73
2021/01/12 02:19:33;;;;;;;13.87;10.30;;;-0.40;93.20;;;;;;5108729;28;20203;-72
2021/01/12 02:22:03;;;;;;;13.33;9.70;;;-0.40;93.40;;;;;;5116303;28;20186;-73
2021/01/12 02:24:34;;;;;;;13.30;10.07;;;-0.40;93.60;;;;;;5105694;28;20195;-71
2021/01/12 02:27:01;;;;;;;12.10;8.73;;;-0.30;93.60;;;;;;5086658;28;20685;-72
2021/01/12 02:29:26;;;;;;;11.57;8.77;;;-0.20;93.20;;;;;;5091143;28;20540;-72
2021/01/12 02:31:52;;;;;;;12.43;9.53;;;-0.20;93.20;;;;;;5083327;28;20191;-70
2021/01/12 02:34:22;;;;;;;12.63;9.00;;;-0.10;93.30;;;;;;5079019;28;20583;-71
2021/01/12 02:36:48;;;;;;;12.03;9.17;;;-0.10;93.30;;;;;;5083656;28;20196;-71
2021/01/12 02:39:14;;;;;;;10.67;9.03;;;-0.10;93.30;;;;;;5081992;28;20193;-72
2021/01/12 02:41:41;;;;;;;10.73;8.73;;;0.00;93.00;;;;;;5079273;28;20263;-70
2021/01/12 02:44:17;;;;;;;10.63;8.13;;;-0.10;93.00;;;;;;5091294;28;20186;-72
2021/01/12 02:46:43;;;;;;;11.23;8.40;;;-0.10;93.10;;;;;;5076166;28;20717;-73
2021/01/12 02:49:08;;;;;;;9.57;8.27;;;-0.10;93.10;;;;;;5085576;28;20270;-71
2021/01/12 02:51:37;;;;;;;10.43;7.33;;;-0.10;93.10;;;;;;5085741;28;20662;-71
2021/01/12 02:54:03;;;;;;;8.43;6.63;;;0.00;93.10;;;;;;5084576;28;20205;-71
2021/01/12 02:56:28;;;;;;;10.23;7.87;;;-0.10;93.20;;;;;;5074222;28;20691;-72
2021/01/12 02:58:54;;;;;;;9.03;7.57;;;-0.10;93.00;;;;;;5077899;28;20183;-72
2021/01/12 03:01:20;;;;;;;10.23;7.80;;;-0.10;92.80;;;;;;5084845;28;20201;-72
2021/01/12 03:03:46;;;;;;;9.20;7.20;;;-0.10;93.00;;;;;;5084993;28;20187;-72
2021/01/12 03:06:11;;;;;;;11.07;7.77;;;0.00;92.90;;;;;;5074757;28;20207;-71
2021/01/12 03:08:37;;;;;;;8.30;7.20;;;0.00;92.70;;;;;;5082239;28;20331;-72
2021/01/12 03:11:02;;;;;;;11.30;7.50;;;0.00;92.90;;;;;;5085941;28;20382;-72
2021/01/12 03:13:28;;;;;;;8.10;6.50;;;0.10;92.80;;;;;;5076925;28;20220;-71
2021/01/12 03:15:54;;;;;;;8.20;6.67;;;0.10;92.90;;;;;;5080473;28;20716;-72
2021/01/12 03:18:19;;;;;;;7.83;6.57;;;0.20;92.70;;;;;;5085867;28;20192;-72
2021/01/12 03:20:45;;;;;;;8.10;7.07;;;0.20;92.70;;;;;;5094959;28;21030;-72
2021/01/12 03:23:11;;;;;;;8.63;6.70;;;0.20;92.70;;;;;;5080726;28;20268;-72
2021/01/12 03:25:36;;;;;;;7.50;6.40;;;0.20;92.60;;;;;;5089357;28;20713;-72
2021/01/12 03:28:03;;;;;;;8.20;5.90;;;0.30;92.60;;;;;;5086352;28;20272;-72
2021/01/12 03:30:29;;;;;;;7.07;5.73;;;0.30;92.40;;;;;;5080693;28;20181;-73
2021/01/12 03:32:55;;;;;;;6.67;5.40;;;0.50;91.80;;;;;;5080878;28;20213;-72
2021/01/12 03:35:21;;;;;;;6.70;5.93;;;0.50;91.60;;;;;;5075501;28;20186;-73
2021/01/12 03:37:48;;;;;;;6.10;4.93;;;0.60;91.60;;;;;;5079439;28;20265;-71
2021/01/12 03:40:14;;;;;;;7.33;6.03;;;0.60;91.60;;;;;;5074569;28;20710;-72
2021/01/12 03:42:39;;;;;;;6.80;5.17;;;0.70;91.40;;;;;;5075776;28;20263;-72
2021/01/12 03:45:06;;;;;;;6.87;5.80;;;0.70;91.00;;;;;;5086387;28;20210;-71
2021/01/12 03:47:31;;;;;;;7.97;5.10;;;0.70;91.00;;;;;;5076512;28;20206;-71
2021/01/12 03:49:57;;;;;;;7.63;5.57;;;0.70;91.20;;;;;;5080191;28;20296;-71
2021/01/12 03:52:23;;;;;;;6.60;5.90;;;0.70;91.40;;;;;;5074143;28;20233;-72
2021/01/12 03:54:48;;;;;;;8.33;6.37;;;0.70;91.30;;;;;;5087697;28;20647;-71
2021/01/12 03:57:14;;;;;;;7.03;5.90;;;0.80;91.40;;;;;;5078098;28;20991;-72
2021/01/12 03:59:39;;;;;;;6.97;5.90;;;0.70;91.30;;;;;;5083493;28;20192;-72
2021/01/12 04:02:05;;;;;;;7.70;6.37;;;0.70;91.40;;;;;;5079732;28;20620;-74
2021/01/12 04:04:31;;;;;;;7.00;6.10;;;0.70;91.50;;;;;;5078670;28;20245;-72
2021/01/12 04:06:56;;;;;;;7.63;5.87;;;0.70;91.90;;;;;;5082043;28;20688;-72
2021/01/12 04:09:23;;;;;;;6.73;5.50;;;0.70;91.90;;;;;;5085266;28;20193;-71
2021/01/12 04:11:49;;;;;;;7.03;5.30;;;0.80;92.00;;;;;;5081519;28;20186;-72
2021/01/12 04:14:15;;;;;;;6.93;5.40;;;0.90;91.70;;;;;;5079631;28;20612;-73
2021/01/12 04:16:41;;;;;;;7.40;6.53;;;0.90;91.40;;;;;;5087169;28;20213;-71
2021/01/12 04:19:07;;;;;;;7.83;6.20;;;0.90;91.50;;;;;;5083886;28;20327;-71
2021/01/12 04:21:33;;;;;;;6.83;5.57;;;0.90;91.40;;;;;;5082064;28;20720;-72
2021/01/12 04:23:59;;;;;;;5.33;4.73;;;1.00;91.10;;;;;;5085967;28;20186;-71
2021/01/12 04:26:25;;;;;;;7.13;6.40;;;1.00;90.70;;;;;;5079271;28;20214;-71
2021/01/12 04:28:50;;;;;;;7.17;5.73;;;1.00;90.70;;;;;;5080178;28;20198;-71
2021/01/12 04:31:16;;;;;;;7.03;5.97;;;1.00;90.80;;;;;;5079158;28;20243;-73
2021/01/12 04:33:42;;;;;;;7.07;6.03;;;1.00;90.60;;;;;;5081423;28;20217;-72
2021/01/12 04:36:07;;;;;;;7.33;5.97;;;1.00;91.00;;;;;;5081913;28;20224;-71
2021/01/12 04:38:33;;;;;;;7.83;5.77;;;1.10;91.10;;;;;;5078080;28;20312;-73
2021/01/12 04:40:59;;;;;;;6.57;5.13;;;1.10;90.90;;;;;;5080831;28;20178;-73
2021/01/12 04:43:24;;;;;;;6.60;5.70;;;1.10;91.10;;;;;;5081668;28;20193;-71
2021/01/12 04:45:50;;;;;;;6.83;5.70;;;1.10;91.00;;;;;;5077747;28;20225;-71
2021/01/12 04:48:15;;;;;;;8.33;5.90;;;1.10;90.90;;;;;;5079533;28;20758;-72
2021/01/12 04:50:41;;;;;;;7.10;6.17;;;1.10;90.90;;;;;;5087071;28;20189;-78
2021/01/12 04:53:07;;;;;;;7.33;5.60;;;1.10;90.90;;;;;;5085270;28;20718;-74
2021/01/12 04:55:32;;;;;;;6.63;5.83;;;1.10;90.80;;;;;;5065854;28;20197;-72
2021/01/12 04:57:58;;;;;;;8.50;6.50;;;1.10;91.10;;;;;;5074703;28;20244;-72
2021/01/12 05:00:28;;;;;;;7.23;6.23;;;1.00;91.20;;;;;;5076220;28;20276;-71
2021/01/12 05:03:00;;;;;;;8.20;6.77;;;1.00;91.50;;;;;;5088495;28;20550;-70
2021/01/12 05:05:38;;;;;;;7.93;6.13;;;1.00;91.90;;;;;;5084842;28;20209;-71
2021/01/12 05:08:06;;;;;;;8.53;6.37;;;1.00;92.10;;;;;;5079293;28;20705;-71
2021/01/12 05:10:35;;;;;;;7.40;6.40;;;1.00;92.20;;;;;;5086067;28;20214;-72
2021/01/12 05:13:01;;;;;;;8.60;6.70;;;1.00;92.50;;;;;;5084810;28;20576;-71
2021/01/12 05:15:30;;;;;;;10.47;7.33;;;1.00;92.70;;;;;;5091060;28;20180;-71
2021/01/12 05:17:57;;;;;;;7.47;6.43;;;0.90;92.90;;;;;;5085346;28;20260;-71
2021/01/12 05:20:25;;;;;;;11.30;8.40;;;1.00;92.90;;;;;;5083027;28;20194;-71
2021/01/12 05:23:11;;;;;;;8.27;6.33;;;0.90;93.10;;;;;;5084895;28;20192;-71
2021/01/12 05:25:41;;;;;;;7.73;6.60;;;0.90;93.40;;;;;;5084624;28;20353;-71
2021/01/12 05:28:11;;;;;;;7.07;6.30;;;0.90;93.60;;;;;;5077924;28;20190;-71
2021/01/12 05:30:37;;;;;;;6.97;5.97;;;1.00;93.60;;;;;;5082462;28;20648;-72
2021/01/12 05:33:03;;;;;;;9.37;6.97;;;1.00;93.60;;;;;;5085752;28;20221;-73
2021/01/12 05:35:30;;;;;;;7.20;6.13;;;1.00;93.60;;;;;;5079633;28;20236;-72
2021/01/12 05:38:08;;;;;;;7.33;6.20;;;1.00;93.90;;;;;;5076292;28;20175;-72
2021/01/12 05:40:36;;;;;;;8.17;7.37;;;1.00;94.00;;;;;;5081542;28;20842;-72
2021/01/12 05:43:12;;;;;;;9.27;7.93;;;1.10;94.00;;;;;;5080469;28;20502;-72
2021/01/12 05:45:43;;;;;;;7.97;6.40;;;1.10;93.80;;;;;;5087544;28;20841;-72
2021/01/12 05:48:12;;;;;;;8.57;7.30;;;1.20;93.90;;;;;;5088789;28;20495;-72
2021/01/12 05:50:38;;;;;;;8.00;6.73;;;1.20;94.00;;;;;;5085850;28;20785;-72
2021/01/12 05:53:14;;;;;;;8.98;7.97;;;1.20;94.00;;;;;;5086394;28;20425;-73
2021/01/12 05:55:41;;;;;;;7.43;6.63;;;1.20;94.10;;;;;;5075482;28;20229;-72
2021/01/12 05:58:12;;;;;;;8.10;6.30;;;1.20;94.10;;;;;;5085324;28;20225;-72
2021/01/12 06:00:43;;;;;;;8.00;6.77;;;1.20;94.00;;;;;;5076391;28;20262;-72
2021/01/12 06:03:14;;;;;;;8.37;6.80;;;1.20;94.20;;;;;;5086031;28;20208;-73
2021/01/12 06:05:45;;;;;;;9.07;6.67;;;1.20;94.20;;;;;;5085821;28;20243;-71
2021/01/12 06:08:14;;;;;;;7.33;6.17;;;1.20;94.00;;;;;;5082028;28;20181;-71
2021/01/12 06:10:44;;;;;;;7.87;6.17;;;1.20;94.20;;;;;;5085068;28;20207;-73
2021/01/12 06:13:17;;;;;;;7.93;6.00;;;1.30;94.00;;;;;;5076835;28;20217;-72
2021/01/12 06:15:48;;;;;;;7.60;6.78;;;1.30;94.10;;;;;;5081402;28;20424;-71
2021/01/12 06:18:16;;;;;;;8.97;6.53;;;1.40;94.10;;;;;;5074539;28;20241;-72
2021/01/12 06:21:12;;;;;;;6.77;5.73;;;1.40;94.50;;;;;;5083629;28;20219;-71
2021/01/12 06:23:58;;;;;;;6.23;5.17;;;1.40;94.10;;;;;;5080188;28;20182;-72
2021/01/12 06:26:26;;;;;;;7.17;5.47;;;1.50;93.60;;;;;;5080802;28;20381;-71
2021/01/12 06:28:53;;;;;;;6.57;5.23;;;1.50;93.30;;;;;;5086776;28;20641;-71
2021/01/12 06:31:19;;;;;;;8.10;6.00;;;1.60;93.20;;;;;;5087836;28;20413;-71
2021/01/12 06:33:57;;;;;;;7.27;6.30;;;1.60;93.20;;;;;;5086878;28;20247;-71
2021/01/12 06:36:29;;;;;;;9.57;7.23;;;1.60;93.50;;;;;;5086105;28;20194;-72
2021/01/12 06:38:56;;;;;;;6.50;5.77;;;1.60;93.10;;;;;;5075379;28;20172;-72
2021/01/12 06:41:22;;;;;;;7.40;5.50;;;1.60;93.20;;;;;;5074555;28;20265;-72
2021/01/12 06:43:50;;;;;;;6.83;5.13;;;1.60;93.20;;;;;;5080449;28;20234;-71
2021/01/12 06:46:17;;;;;;;7.63;5.20;;;1.70;93.20;;;;;;5099877;28;20273;-71
2021/01/12 06:48:44;;;;;;;5.87;5.27;;;1.70;93.30;;;;;;5085262;28;20198;-72
2021/01/12 06:51:10;;;;;;;6.97;6.03;;;1.70;93.40;;;;;;5078435;28;20186;-72
2021/01/12 06:53:36;;;;;;;6.93;5.87;;;1.80;93.40;;;;;;5106248;28;20257;-71
2021/01/12 06:56:06;;;;;;;5.73;4.77;;;1.80;93.40;;;;;;5098990;28;20280;-73
2021/01/12 06:58:31;;;;;;;5.83;4.97;;;1.80;93.50;;;;;;5093132;28;20186;-73
2021/01/12 07:01:01;;;;;;;5.40;4.40;;;1.80;93.70;;;;;;5080389;28;20205;-72
2021/01/12 07:03:32;;;;;;;5.10;4.60;;;1.90;93.50;;;;;;5068593;28;20193;-72
2021/01/12 07:06:03;;;;;;;5.40;4.87;;;1.90;93.50;;;;;;5063273;28;20211;-72
2021/01/12 07:08:29;;;;;;;5.33;4.70;;;1.90;93.60;;;;;;5074293;28;20231;-73
2021/01/12 07:11:01;;;;;;;6.50;5.20;;;1.90;93.60;;;;;;5064974;28;20526;-72
2021/01/12 07:13:36;;;;;;;5.80;4.97;;;2.00;93.60;;;;;;5062471;28;20223;-71
2021/01/12 07:16:13;;;;;;;5.33;4.77;;;2.00;93.80;;;;;;5072289;28;20202;-70
2021/01/12 07:18:39;;;;;;;4.97;4.43;;;2.00;93.90;;;;;;5090302;28;20178;-71
2021/01/12 07:21:06;;;;;;;5.87;4.30;;;2.10;93.70;;;;;;5084504;28;20666;-71
2021/01/12 07:23:31;;;;;;;6.00;4.50;;;2.10;93.90;;;;;;5080699;28;20671;-71
2021/01/12 07:26:04;;;;;;;8.80;5.07;;;2.10;93.80;;;;;;5079931;28;20254;-71
2021/01/12 07:28:32;;;;;;;5.70;4.90;;;2.10;93.90;;;;;;5080213;28;20233;-72
2021/01/12 07:30:58;;;;;;;5.53;4.60;;;2.10;94.00;;;;;;5080783;28;20472;-72
2021/01/12 07:33:27;;;;;;;5.10;4.60;;;2.10;94.10;;;;;;5083109;28;20231;-72
2021/01/12 07:35:58;;;;;;;5.47;4.17;;;2.20;94.10;;;;;;5091827;28;20206;-72
2021/01/12 07:38:29;;;;;;;6.53;4.93;;;2.20;94.10;;;;;;5074784;28;20190;-73
2021/01/12 07:40:56;;;;;;;5.10;4.30;;;2.20;94.20;;;;;;5085250;28;20231;-72
2021/01/12 07:43:24;;;;;;;4.80;4.30;;;2.30;94.50;;;;;;5084990;28;20265;-72
2021/01/12 07:45:52;;;;;;;6.63;4.90;;;2.30;94.10;;;;;;5077658;28;20202;-72
2021/01/12 07:48:18;;;;;;;5.47;4.90;;;2.30;94.30;;;;;;5080861;28;20180;-72
2021/01/12 07:50:45;;;;;;;4.40;3.83;;;2.30;94.40;;;;;;5084025;28;20187;-73
2021/01/12 07:53:13;;;;;;;5.57;4.80;;;2.30;94.50;;;;;;5072088;28;20287;-73
2021/01/12 07:55:39;;;;;;;6.87;4.60;;;2.30;94.50;;;;;;5078416;28;20196;-72
2021/01/12 07:58:05;;;;;;;6.27;5.63;;;2.40;94.50;;;;;;5078424;28;20590;-72
2021/01/12 08:00:32;;;;;;;6.27;5.03;;;2.40;94.50;;;;;;5085096;28;20218;-71
2021/01/12 08:02:58;;;;;;;7.17;4.87;;;2.40;94.70;;;;;;5079669;28;20197;-72
2021/01/12 08:05:25;;;;;;;5.60;5.03;;;2.40;94.80;;;;;;5081143;28;20179;-73
2021/01/12 08:08:04;;;;;;;6.60;5.95;;;2.40;95.00;;;;;;5077131;28;20418;-72
2021/01/12 08:10:31;;;;;;;5.67;5.07;;;2.40;95.10;;;;;;5080041;28;20201;-72
2021/01/12 08:13:11;;;;;;;5.90;5.13;;;2.40;95.20;;;;;;5077580;28;20258;-72
2021/01/12 08:15:39;;;;;;;5.57;5.03;;;2.40;95.30;;;;;;5081136;28;20199;-71
2021/01/12 08:18:06;;;;;;;5.77;5.17;;;2.40;95.50;;;;;;5083313;28;20182;-71
2021/01/12 08:20:32;;;;;;;8.33;5.63;;;2.40;95.60;;;;;;5083697;28;20324;-72
2021/01/12 08:22:58;;;;;;;6.17;5.10;;;2.40;95.70;;;;;;5083310;28;20537;-72
2021/01/12 08:25:24;;;;;;;6.95;5.18;;;2.40;95.80;;;;;;5083970;28;20546;-72
2021/01/12 08:27:52;;;;;;;7.03;5.33;;;2.40;95.80;;;;;;5073350;28;20212;-71
2021/01/12 08:30:20;;;;;;;6.60;5.80;;;2.40;96.00;;;;;;5076281;28;20418;-71
2021/01/12 08:32:56;;;;;;;6.03;5.07;;;2.40;96.10;;;;;;5079938;28;20182;-71
2021/01/12 08:35:26;;;;;;;6.47;5.17;;;2.40;96.40;;;;;;5078624;28;20183;-73
2021/01/12 08:37:53;;;;;;;5.90;5.03;;;2.40;96.60;;;;;;5079317;28;20188;-72
2021/01/12 08:40:19;;;;;;;5.47;4.13;;;2.40;96.50;;;;;;5089638;28;20261;-71
2021/01/12 08:42:47;;;;;;;5.53;4.83;;;2.50;96.60;;;;;;5084182;28;20205;-71
2021/01/12 08:45:17;;;;;;;5.63;5.03;;;2.40;96.70;;;;;;5084655;28;20609;-71
2021/01/12 08:47:46;;;;;;;6.60;4.93;;;2.50;96.90;;;;;;5072519;28;20697;-72
2021/01/12 08:50:13;;;;;;;7.37;5.40;;;2.50;96.90;;;;;;5088053;28;20196;-73
2021/01/12 08:52:44;;;;;;;7.13;6.23;;;2.50;97.00;;;;;;5082464;28;20243;-72
2021/01/12 08:55:18;;;;;;;5.03;4.53;;;2.50;96.90;;;;;;5086623;28;20192;-70
2021/01/12 08:57:58;;;;;;;6.33;5.57;;;2.60;96.80;;;;;;5088206;28;20220;-71
2021/01/12 09:00:34;;;;;;;7.17;5.77;;;2.60;96.90;;;;;;5085766;28;20261;-72
2021/01/12 09:03:00;;;;;;;5.88;5.07;;;2.60;96.80;;;;;;5081070;28;20952;-72
2021/01/12 09:05:27;;;;;;;5.73;5.17;;;2.60;96.90;;;;;;5084553;28;20181;-71
2021/01/12 09:08:05;;;;;;;7.77;5.80;;;2.60;96.80;;;;;;5088751;28;20192;-71
2021/01/12 09:10:35;;;;;;;7.90;5.63;;;2.60;97.00;;;;;;5079292;28;20178;-71
2021/01/12 09:13:02;;;;;;;5.43;4.87;;;2.50;97.10;;;;;;5081028;28;20305;-71
2021/01/12 09:15:32;;;;;;;5.63;5.03;;;2.60;97.10;;;;;;5081922;28;20184;-71
2021/01/12 09:18:06;;;;;;;8.00;6.93;;;2.60;97.00;;;;;;5078721;28;20174;-71
2021/01/12 09:20:41;;;;;;;6.40;5.00;;;2.60;97.20;;;;;;5082539;28;20183;-72
2021/01/12 09:23:12;;;;;;;5.03;4.53;;;2.60;97.30;;;;;;5079921;28;20178;-71
2021/01/12 09:25:41;;;;;;;6.37;5.50;;;2.60;97.10;;;;;;5078750;28;20696;-71
2021/01/12 09:28:15;;;;;;;7.20;5.43;;;2.60;97.30;;;;;;5078836;28;20195;-71
2021/01/12 09:30:43;;;;;;;8.50;5.60;;;2.60;97.30;;;;;;5085031;28;20194;-70
2021/01/12 09:33:12;;;;;;;7.93;5.70;;;2.60;97.40;;;;;;5085052;28;20190;-73
2021/01/12 09:35:38;;;;;;;6.30;5.20;;;2.60;97.60;;;;;;5084838;28;20204;-71
2021/01/12 09:38:04;;;;;;;5.50;4.53;;;2.60;97.60;;;;;;5073931;28;20179;-71
2021/01/12 09:40:30;;;;;;;6.47;5.63;;;2.70;97.60;;;;;;5075510;28;20198;-71
2021/01/12 09:42:57;;;;;;;6.00;5.30;;;2.70;97.70;;;;;;5077923;28;20650;-73
2021/01/12 09:45:24;;;;;;;6.97;5.53;;;2.70;97.90;;;;;;5073566;28;20172;-71
2021/01/12 09:47:50;;;;;;;7.33;4.90;;;2.70;97.90;;;;;;5086418;28;20863;-72
2021/01/12 09:50:15;;;;;;;6.27;5.13;;;2.70;97.90;;;;;;5077058;28;20187;-73
2021/01/12 09:52:41;;;;;;;6.90;5.10;;;2.70;98.10;;;;;;5084777;28;20229;-71
2021/01/12 09:55:07;;;;;;;7.47;6.30;;;2.80;98.20;;;;;;5072590;28;20413;-71
2021/01/12 09:57:37;;;;;;;7.07;5.50;;;2.70;98.50;;;;;;5080187;28;20230;-73
2021/01/12 10:00:08;;;;;;;5.33;4.83;;;2.80;98.60;;;;;;5082861;28;20187;-71
2021/01/12 10:02:33;;;;;;;5.93;5.13;;;2.80;98.60;;;;;;5069701;28;20185;-71
2021/01/12 10:05:02;;;;;;;5.73;5.03;;;2.80;98.90;;;;;;5078310;28;20732;-71
2021/01/12 10:07:29;;;;;;;7.53;5.23;;;2.70;99.10;;;;;;5076657;28;20210;-71
2021/01/12 10:09:54;;;;;;;9.90;6.33;;;2.70;99.40;;;;;;5076224;28;20649;-71
2021/01/12 10:12:20;;;;;;;5.27;4.70;;;2.70;99.80;;;;;;5081062;28;20194;-72
2021/01/12 10:14:45;;;;;;;5.73;4.97;;;2.70;99.90;;;;;;5077806;28;20239;-71
2021/01/12 10:17:11;;;;;;;7.90;5.77;;;2.60;99.90;;;;;;5080855;28;20211;-72
2021/01/12 10:19:37;;;;;;;6.37;5.43;;;2.60;99.90;;;;;;5078033;28;20179;-71
2021/01/12 10:22:02;;;;;;;7.80;5.40;;;2.60;99.90;;;;;;5082208;28;20664;-71
2021/01/12 10:24:28;;;;;;;8.13;6.47;;;2.50;99.90;;;;;;5088353;28;20175;-72
2021/01/12 10:26:54;;;;;;;7.67;6.17;;;2.50;99.90;;;;;;5087220;28;20217;-72
2021/01/12 10:29:26;;;;;;;10.60;6.93;;;2.40;99.90;;;;;;5083736;28;20627;-71
2021/01/12 10:31:52;;;;;;;8.80;6.53;;;2.40;99.90;;;;;;5080306;28;20641;-72
2021/01/12 10:34:19;;;;;;;9.40;6.67;;;2.30;99.90;;;;;;5078728;28;20680;-72
2021/01/12 10:36:49;;;;;;;11.93;7.90;;;2.30;99.90;;;;;;5083520;28;20286;-72
2021/01/12 10:39:15;;;;;;;6.27;5.43;;;2.30;99.90;;;;;;5083980;28;20175;-72
2021/01/12 10:41:41;;;;;;;9.20;6.30;;;2.30;99.90;;;;;;5076787;28;20258;-71
2021/01/12 10:44:06;;;;;;;9.50;6.80;;;2.20;99.90;;;;;;5091096;28;20190;-73
2021/01/12 10:46:33;;;;;;;8.93;6.43;;;2.20;99.90;;;;;;5077409;28;20340;-73
2021/01/12 10:48:58;;;;;;;8.13;6.20;;;2.20;99.90;;;;;;5079905;28;20556;-73
2021/01/12 10:51:24;;;;;;;9.57;7.00;;;2.20;99.90;;;;;;5081401;28;20196;-72
2021/01/12 10:53:49;;;;;;;10.37;6.83;;;2.20;99.90;;;;;;5089129;28;20219;-73
2021/01/12 10:56:16;;;;;;;9.00;6.70;;;2.20;99.90;;;;;;5078144;28;20201;-73
2021/01/12 10:58:42;;;;;;;10.73;7.23;;;2.20;99.90;;;;;;5075883;28;20703;-74
2021/01/12 11:01:08;;;;;;;8.53;7.00;;;2.20;99.90;;;;;;5079446;28;20634;-74
2021/01/12 11:03:33;;;;;;;6.93;5.40;;;2.20;99.90;;;;;;5079317;28;20194;-74
2021/01/12 11:05:59;;;;;;;9.40;6.70;;;2.10;99.90;;;;;;5076885;28;20308;-73
2021/01/12 11:08:25;;;;;;;10.23;7.50;;;2.10;99.90;;;;;;5075428;28;20523;-73
2021/01/12 11:10:54;;;;;;;9.93;7.33;;;2.10;99.90;;;;;;5084916;28;20651;-74
2021/01/12 11:13:20;;;;;;;7.87;6.10;;;2.10;99.90;;;;;;5077462;28;20210;-74
2021/01/12 11:15:46;;;;;;;8.67;6.90;;;2.10;99.90;;;;;;5087278;28;20278;-75
2021/01/12 11:18:12;;;;;;;8.43;6.57;;;2.10;99.90;;;;;;5082942;28;20186;-75
2021/01/12 11:20:38;;;;;;;13.47;7.40;;;2.00;99.90;;;;;;5085951;28;20212;-72
2021/01/12 11:23:04;;;;;;;8.43;7.03;;;2.00;99.90;;;;;;5077237;28;20268;-73
2021/01/12 11:25:30;;;;;;;10.07;7.17;;;2.00;99.90;;;;;;5079932;28;20225;-73
2021/01/12 11:27:56;;;;;;;11.93;5.70;;;2.00;99.90;;;;;;5082724;28;20182;-72
2021/01/12 11:30:23;;;;;;;10.30;7.87;;;2.00;99.90;;;;;;5081649;28;20178;-72
2021/01/12 11:32:48;;;;;;;12.33;7.50;;;1.90;99.90;;;;;;5090941;28;20214;-72
2021/01/12 11:35:15;;;;;;;10.20;7.27;;;1.90;99.90;;;;;;5084191;28;20208;-72
2021/01/12 11:37:43;;;;;;;12.53;8.20;;;1.90;99.90;;;;;;5090956;28;20198;-72
2021/01/12 11:40:10;;;;;;;9.50;7.10;;;1.90;99.90;;;;;;5080775;28;20178;-71
2021/01/12 11:42:35;;;;;;;8.47;6.70;;;1.90;99.90;;;;;;5080886;28;20234;-72
2021/01/12 11:45:01;;;;;;;9.90;7.50;;;1.90;99.90;;;;;;5075673;28;20421;-72
2021/01/12 11:47:27;;;;;;;11.85;9.35;;;1.90;99.90;;;;;;5077920;28;20447;-74
2021/01/12 11:49:52;;;;;;;8.07;6.20;;;1.90;99.90;;;;;;5090673;28;20683;-73
2021/01/12 11:52:18;;;;;;;10.40;6.90;;;1.90;99.90;;;;;;5079522;28;20194;-75
2021/01/12 11:54:44;;;;;;;9.43;6.97;;;1.90;99.90;;;;;;5083073;28;20202;-74
2021/01/12 11:57:12;;;;;;;9.85;7.85;;;1.90;99.90;;;;;;5103753;28;20408;-73
2021/01/12 11:59:38;;;;;;;7.00;5.17;;;1.90;99.90;;;;;;5093039;28;20783;-74
2021/01/12 12:02:04;;;;;;;8.97;6.10;;;2.00;99.90;;;;;;5101445;28;20185;-75
2021/01/12 12:04:30;;;;;;;7.57;6.13;;;2.00;99.90;;;;;;5100119;28;20198;-73
2021/01/12 12:07:01;;;;;;;8.17;6.13;;;2.00;99.90;;;;;;5075822;28;20233;-74
2021/01/12 12:09:28;;;;;;;7.40;5.73;;;2.00;99.90;;;;;;5078534;28;20190;-75
2021/01/12 12:11:54;;;;;;;7.73;5.13;;;2.00;99.90;;;;;;5084483;28;20185;-73
2021/01/12 12:14:20;;;;;;;9.27;5.80;;;2.00;99.90;;;;;;5077845;28;20213;-74
2021/01/12 12:16:47;;;;;;;6.83;5.30;;;2.00;99.90;;;;;;5086886;28;20567;-74
2021/01/12 12:19:15;;;;;;;7.67;6.10;;;2.00;99.90;;;;;;5092774;28;20222;-74
2021/01/12 12:21:52;;;;;;;6.40;5.00;;;2.00;99.90;;;;;;5086257;28;20186;-75
2021/01/12 12:24:19;;;;;;;7.77;5.80;;;2.00;99.90;;;;;;5078716;28;20186;-74
2021/01/12 12:26:47;;;;;;;8.40;6.37;;;1.90;99.90;;;;;;5082094;28;20209;-73
2021/01/12 12:29:13;;;;;;;7.07;5.47;;;1.90;99.90;;;;;;5081897;28;20181;-72
2021/01/12 12:31:39;;;;;;;6.67;5.47;;;1.90;99.90;;;;;;5091033;28;20667;-71
2021/01/12 12:34:05;;;;;;;8.43;6.03;;;2.00;99.90;;;;;;5077142;28;20297;-72
2021/01/12 12:36:31;;;;;;;8.27;6.33;;;2.00;99.90;;;;;;5076486;28;20696;-72
2021/01/12 12:38:57;;;;;;;9.43;6.40;;;2.00;99.90;;;;;;5079805;28;20256;-73
2021/01/12 12:41:22;;;;;;;8.33;5.60;;;2.00;99.90;;;;;;5078866;28;20321;-72
2021/01/12 12:43:48;;;;;;;7.47;6.13;;;2.00;99.90;;;;;;5086252;28;20189;-72
2021/01/12 12:46:16;;;;;;;6.83;5.07;;;2.00;99.90;;;;;;5081541;28;20678;-74
2021/01/12 12:48:43;;;;;;;8.73;6.13;;;2.00;99.90;;;;;;5082850;28;20197;-72
2021/01/12 12:51:10;;;;;;;7.83;6.10;;;2.10;99.90;;;;;;5081057;28;20273;-73
2021/01/12 12:53:38;;;;;;;6.17;5.57;;;2.00;99.90;;;;;;5079088;28;20605;-74